Hauptseite
METAR-TAF:

METAR-TAF

Flughäfen :

Berlin, Deutschland

Flughafen Berlin-Tegel

Breite: 52-34N, Länge: 013-19E, Höhe: 37 m

Beobachtung

Neuester Wetterbericht von vor 8 Minuten, um 13:50 UTC
Wind 10 kt aus Ost/Nordost, Böen bis zu 21 kt, variierte zwischen Nord und Ost
Temperatur 0°C
Luftfeuchtigkeit 37%
Luftdruck 1030 hPa
Sichtweite 10 km oder mehr
Leicht bewölkt in der Höhe von 4800 ft

METAR: EDDT 241350Z 06010G21KT 010V100 9999 FEW048 M00/M13 Q1030 TEMPO 05015G25KT

Zeit: 14:58 (13:58 UTC)

Prognose

Neuester Wetterbericht von vor 2 Stunden und 58 Minuten, um 11:00 UTC
Gültige Prognose vom 24 um 12 UTC bis 25 um 12 UTC
Wind 15 kt aus Nordost, Böen bis zu 25 kt
Sichtweite 10 km oder mehr
Aufgelockert bewölkt in der Höhe von 4500 ft
Übergehend zu
vom 24 um 14 UTC bis 24 um 17 UTC
Wind 9 kt aus Nordost

TAF: EDDT 241100Z 2412/2512 05015G25KT 9999 SCT045 BECMG 2414/2417 05009KT

Wetterbeobachtungen und Prognosen von mehr als 4000 Flughäfen (METAR und TAF Bericht).

Die verfügbaren Stationen werden durch gelbe und rote Markierungen auf der Karte dargestellt.

Führen Sie die Maus auf sie, um den Namen der Station zu sehen.

Darauf klicken, um die Beobachtung von Wetterbeobachtungen und Prognosen zu sehen.

Um die Karte zu ändern : klicken Sie auf den grünen Tasten mit einem schwarzen Kreuz Zum Vergrößern, auf den grünen Button mit einem Gedankenstrich zu verkleinern, oder auf die grünen Pfeile für benachbarte Karten.


METAR-TAF: